createdAt,value
2022-12-12T00:01:22.548Z,100.00
2022-12-12T00:03:50.391Z,100.00
2022-12-12T00:06:19.051Z,100.00
2022-12-12T00:08:48.655Z,100.00
2022-12-12T00:11:16.312Z,100.00
2022-12-12T00:13:43.553Z,100.00
2022-12-12T00:16:11.641Z,100.00
2022-12-12T00:18:39.739Z,100.00
2022-12-12T00:21:11.754Z,100.00
2022-12-12T00:23:38.780Z,100.00
2022-12-12T00:26:11.936Z,100.00
2022-12-12T00:28:38.901Z,100.00
2022-12-12T00:31:06.227Z,100.00
2022-12-12T00:33:33.302Z,100.00
2022-12-12T00:36:00.776Z,100.00
2022-12-12T00:38:27.815Z,100.00
2022-12-12T00:40:57.653Z,100.00
2022-12-12T00:43:25.938Z,100.00
2022-12-12T00:45:54.000Z,100.00
2022-12-12T00:48:23.621Z,100.00
2022-12-12T00:50:51.129Z,100.00
2022-12-12T00:53:18.231Z,100.00
2022-12-12T00:55:49.222Z,100.00
2022-12-12T00:58:16.181Z,100.00
2022-12-12T01:00:43.950Z,100.00
2022-12-12T01:03:13.315Z,100.00
2022-12-12T01:05:40.744Z,100.00
2022-12-12T01:08:07.835Z,100.00
2022-12-12T01:10:37.389Z,100.00
2022-12-12T01:13:04.433Z,100.00
2022-12-12T01:15:32.149Z,100.00
2022-12-12T01:17:59.158Z,100.00
2022-12-12T01:20:27.798Z,100.00
2022-12-12T01:22:57.563Z,100.00
2022-12-12T01:25:24.917Z,100.00
2022-12-12T01:27:54.247Z,100.00
2022-12-12T01:30:23.886Z,100.00
2022-12-12T01:32:55.314Z,100.00
2022-12-12T01:35:23.592Z,100.00
2022-12-12T01:37:50.987Z,100.00
2022-12-12T01:40:22.300Z,100.00
2022-12-12T01:42:50.128Z,100.00
2022-12-12T01:45:55.099Z,100.00
2022-12-12T01:48:26.714Z,100.00
2022-12-12T01:50:55.475Z,100.00
2022-12-12T01:53:25.801Z,100.00
2022-12-12T01:55:56.738Z,100.00
2022-12-12T01:58:24.775Z,100.00
2022-12-12T02:00:52.223Z,100.00
2022-12-12T02:03:19.307Z,100.00
2022-12-12T02:05:55.109Z,100.00
2022-12-12T02:08:23.740Z,100.00
2022-12-12T02:10:51.778Z,100.00
2022-12-12T02:13:22.694Z,100.00
2022-12-12T02:16:10.048Z,100.00
2022-12-12T02:18:55.243Z,100.00
2022-12-12T02:21:40.708Z,100.00
2022-12-12T02:24:30.825Z,100.00
2022-12-12T02:27:24.564Z,100.00
2022-12-12T02:30:06.092Z,100.00
2022-12-12T02:32:40.109Z,100.00
2022-12-12T02:35:25.332Z,100.00
2022-12-12T02:38:01.815Z,100.00
2022-12-12T02:40:44.384Z,100.00
2022-12-12T02:43:36.558Z,100.00
2022-12-12T02:46:31.360Z,100.00
2022-12-12T02:49:04.773Z,100.00
2022-12-12T02:51:34.760Z,100.00
2022-12-12T02:54:05.460Z,100.00
2022-12-12T02:56:50.886Z,100.00
2022-12-12T02:59:26.020Z,100.00
2022-12-12T03:02:26.999Z,100.00
2022-12-12T03:05:35.121Z,100.00
2022-12-12T03:08:14.293Z,100.00
2022-12-12T03:11:05.006Z,100.00
2022-12-12T03:13:53.194Z,100.00
2022-12-12T03:16:39.061Z,100.00
2022-12-12T03:19:15.670Z,100.00
2022-12-12T03:21:59.703Z,100.00
2022-12-12T03:24:34.644Z,100.00
2022-12-12T03:27:14.089Z,100.00
2022-12-12T03:29:46.626Z,100.00
2022-12-12T03:32:28.337Z,100.00
2022-12-12T03:35:03.476Z,100.00
2022-12-12T03:37:48.210Z,100.00
2022-12-12T03:40:33.582Z,100.00
2022-12-12T03:43:07.022Z,100.00
2022-12-12T03:45:59.582Z,100.00
2022-12-12T03:48:34.546Z,100.00
2022-12-12T03:51:03.616Z,100.00
2022-12-12T03:53:34.188Z,100.00
2022-12-12T03:56:13.050Z,100.00
2022-12-12T03:58:51.007Z,100.00
2022-12-12T04:01:22.274Z,100.00
2022-12-12T04:04:18.934Z,100.00
2022-12-12T04:06:54.182Z,100.00
2022-12-12T04:09:40.444Z,100.00
2022-12-12T04:12:42.433Z,100.00
2022-12-12T04:15:16.219Z,100.00
2022-12-12T04:18:00.340Z,100.00
2022-12-12T04:20:56.605Z,100.00
2022-12-12T04:23:34.255Z,100.00
2022-12-12T04:26:20.496Z,100.00
2022-12-12T04:29:01.658Z,100.00
2022-12-12T04:31:31.405Z,100.00
2022-12-12T04:34:04.098Z,100.00
2022-12-12T04:36:35.722Z,100.00
2022-12-12T04:39:05.713Z,100.00
2022-12-12T04:41:37.296Z,100.00
2022-12-12T04:44:07.073Z,100.00
2022-12-12T04:46:34.515Z,100.00
2022-12-12T04:49:13.090Z,100.00
2022-12-12T04:51:45.271Z,100.00
2022-12-12T04:54:25.802Z,100.00
2022-12-12T04:56:57.993Z,100.00
2022-12-12T04:59:25.424Z,100.00
2022-12-12T05:02:00.205Z,100.00
2022-12-12T05:04:30.321Z,100.00
2022-12-12T05:07:06.453Z,100.00
2022-12-12T05:09:33.623Z,100.00
2022-12-12T05:12:01.023Z,100.00
2022-12-12T05:14:31.083Z,100.00
2022-12-12T05:17:06.602Z,100.00
2022-12-12T05:19:33.640Z,100.00
2022-12-12T05:22:00.900Z,100.00
2022-12-12T05:24:31.418Z,100.00
2022-12-12T05:27:00.978Z,100.00
2022-12-12T05:29:27.991Z,100.00
2022-12-12T05:31:57.916Z,100.00
2022-12-12T05:34:25.032Z,100.00
2022-12-12T05:36:52.310Z,100.00
2022-12-12T05:39:19.360Z,100.00
2022-12-12T05:41:46.761Z,100.00
2022-12-12T05:44:13.970Z,100.00
2022-12-12T05:46:41.445Z,100.00
2022-12-12T05:49:09.124Z,100.00
2022-12-12T05:51:37.554Z,100.00
2022-12-12T05:54:04.688Z,100.00
2022-12-12T05:56:32.055Z,100.00
2022-12-12T05:58:59.123Z,100.00
2022-12-12T06:01:26.501Z,100.00
2022-12-12T06:03:53.765Z,100.00
2022-12-12T06:06:21.116Z,100.00
2022-12-12T06:08:48.501Z,100.00
2022-12-12T06:11:15.871Z,100.00
2022-12-12T06:13:43.370Z,100.00
2022-12-12T06:16:16.983Z,100.00
2022-12-12T06:18:45.262Z,100.00
2022-12-12T06:21:13.475Z,100.00
2022-12-12T06:23:42.323Z,100.00
2022-12-12T06:26:14.493Z,100.00
2022-12-12T06:28:41.893Z,100.00
2022-12-12T06:31:12.061Z,100.00
2022-12-12T06:33:41.479Z,100.00
2022-12-12T06:36:22.779Z,100.00
2022-12-12T06:38:58.686Z,100.00
2022-12-12T06:41:29.009Z,100.00
2022-12-12T06:43:56.722Z,100.00
2022-12-12T06:46:26.636Z,100.00
2022-12-12T06:48:54.979Z,100.00
2022-12-12T06:51:25.289Z,100.00
2022-12-12T06:53:52.793Z,100.00
2022-12-12T06:56:22.628Z,100.00
2022-12-12T06:58:49.964Z,100.00
2022-12-12T07:01:20.543Z,100.00
2022-12-12T07:03:49.624Z,100.00
2022-12-12T07:06:18.429Z,100.00
2022-12-12T07:08:45.443Z,100.00
2022-12-12T07:11:16.328Z,100.00
2022-12-12T07:13:43.716Z,100.00
2022-12-12T07:16:14.069Z,100.00
2022-12-12T07:18:41.845Z,100.00
2022-12-12T07:21:12.608Z,100.00
2022-12-12T07:23:39.811Z,100.00
2022-12-12T07:26:09.902Z,100.00
2022-12-12T07:28:38.300Z,100.00
2022-12-12T07:31:11.346Z,100.00
2022-12-12T07:33:43.476Z,100.00
2022-12-12T07:36:17.087Z,100.00
2022-12-12T07:38:44.523Z,100.00
2022-12-12T07:41:15.650Z,100.00
2022-12-12T07:43:45.187Z,100.00
2022-12-12T07:46:18.607Z,100.00
2022-12-12T07:48:46.120Z,100.00
2022-12-12T07:51:14.629Z,100.00
2022-12-12T07:53:42.043Z,100.00
2022-12-12T07:56:11.609Z,100.00
2022-12-12T07:58:39.553Z,100.00
2022-12-12T08:01:26.288Z,100.00
2022-12-12T08:03:55.973Z,100.00
2022-12-12T08:06:23.840Z,100.00
2022-12-12T08:08:52.455Z,100.00
2022-12-12T08:11:23.270Z,100.00
2022-12-12T08:13:50.984Z,100.00
2022-12-12T08:16:21.805Z,100.00
2022-12-12T08:18:49.860Z,100.00
2022-12-12T08:21:24.791Z,100.00
2022-12-12T08:23:56.806Z,100.00
2022-12-12T08:26:25.999Z,100.00
2022-12-12T08:28:53.784Z,100.00
2022-12-12T08:31:21.786Z,100.00
2022-12-12T08:33:53.310Z,100.00
2022-12-12T08:36:32.351Z,100.00
2022-12-12T08:39:13.980Z,100.00
2022-12-12T08:41:49.969Z,100.00
2022-12-12T08:44:19.484Z,100.00
2022-12-12T08:46:48.059Z,98.87
2022-12-12T08:49:19.374Z,100.00
2022-12-12T08:51:50.601Z,100.00
2022-12-12T08:54:18.471Z,98.48
2022-12-12T08:56:45.783Z,100.00
2022-12-12T08:59:13.430Z,98.59
2022-12-12T09:01:41.182Z,96.25
2022-12-12T09:04:08.250Z,96.33
2022-12-12T09:06:35.704Z,96.96
2022-12-12T09:09:02.873Z,97.40
2022-12-12T09:11:30.168Z,96.70
2022-12-12T09:13:57.108Z,95.84
2022-12-12T09:16:26.603Z,96.31
2022-12-12T09:18:54.322Z,95.63
2022-12-12T09:21:22.037Z,94.18
2022-12-12T09:23:49.523Z,94.41
2022-12-12T09:26:18.086Z,93.55
2022-12-12T09:28:45.151Z,95.27
2022-12-12T09:31:16.326Z,92.70
2022-12-12T09:33:43.770Z,94.28
2022-12-12T09:36:12.509Z,91.90
2022-12-12T09:38:39.814Z,90.93
2022-12-12T09:41:10.111Z,91.62
2022-12-12T09:44:18.765Z,88.70
2022-12-12T09:47:00.533Z,90.75
2022-12-12T09:49:35.071Z,90.62
2022-12-12T09:52:06.314Z,93.13
2022-12-12T09:54:33.441Z,93.77
2022-12-12T09:57:06.804Z,91.52
2022-12-12T10:00:02.044Z,92.85
2022-12-12T10:02:40.648Z,92.79
2022-12-12T10:05:13.817Z,97.69
2022-12-12T10:07:55.637Z,100.00
2022-12-12T10:10:31.833Z,100.00
2022-12-12T10:13:02.140Z,100.00
2022-12-12T10:15:54.542Z,100.00
2022-12-12T10:18:35.655Z,100.00
2022-12-12T10:21:07.095Z,100.00
2022-12-12T10:23:40.068Z,100.00
2022-12-12T10:26:16.103Z,100.00
2022-12-12T10:28:44.515Z,100.00
2022-12-12T10:31:27.165Z,100.00
2022-12-12T10:34:01.779Z,100.00
2022-12-12T10:37:17.001Z,90.82
2022-12-12T10:39:50.228Z,90.13
2022-12-12T10:42:22.740Z,87.44
2022-12-12T10:45:17.934Z,87.72
2022-12-12T10:47:45.561Z,86.11
2022-12-12T10:50:33.780Z,85.00
2022-12-12T10:53:05.176Z,84.41
2022-12-12T10:55:53.618Z,84.47
2022-12-12T10:58:35.735Z,83.86
2022-12-12T11:01:10.285Z,83.21
2022-12-12T11:03:46.824Z,85.12
2022-12-12T11:06:38.435Z,83.65
2022-12-12T11:09:26.163Z,85.04
2022-12-12T11:12:01.177Z,84.66
2022-12-12T11:14:39.876Z,86.12
2022-12-12T11:17:24.672Z,85.65
2022-12-12T11:19:54.113Z,88.27
2022-12-12T11:22:22.117Z,89.53
2022-12-12T11:24:50.369Z,91.29
2022-12-12T11:27:50.391Z,89.74
2022-12-12T11:30:32.808Z,86.41
2022-12-12T11:33:01.401Z,85.27
2022-12-12T11:35:36.274Z,84.67
2022-12-12T11:38:28.233Z,84.87
2022-12-12T11:41:04.796Z,84.06
2022-12-12T11:43:36.997Z,85.40
2022-12-12T11:46:16.269Z,85.46
2022-12-12T11:48:47.441Z,86.73
2022-12-12T11:51:31.613Z,89.65
2022-12-12T11:53:59.964Z,89.75
2022-12-12T11:56:53.249Z,91.58
2022-12-12T11:59:57.722Z,95.74
2022-12-12T12:02:46.844Z,97.84
2022-12-12T12:05:26.700Z,100.00
2022-12-12T12:08:12.764Z,100.00
2022-12-12T12:10:50.611Z,100.00
2022-12-12T12:14:14.868Z,100.00
2022-12-12T12:16:48.245Z,100.00
2022-12-12T12:19:33.388Z,100.00
2022-12-12T12:22:28.630Z,100.00
2022-12-12T12:25:29.456Z,100.00
2022-12-12T12:28:10.939Z,100.00
2022-12-12T12:30:59.858Z,100.00
2022-12-12T12:33:40.763Z,100.00
2022-12-12T12:36:22.996Z,100.00
2022-12-12T12:39:03.356Z,100.00
2022-12-12T12:41:45.664Z,100.00
2022-12-12T12:44:34.776Z,100.00
2022-12-12T12:47:19.636Z,100.00
2022-12-12T12:49:54.359Z,100.00
2022-12-12T12:52:32.564Z,100.00
2022-12-12T12:55:03.205Z,100.00
2022-12-12T12:57:33.059Z,100.00
2022-12-12T13:00:06.111Z,100.00
2022-12-12T13:03:01.401Z,100.00
2022-12-12T13:05:29.059Z,100.00
2022-12-12T13:08:14.560Z,100.00
2022-12-12T13:10:47.849Z,100.00
2022-12-12T13:13:30.907Z,100.00
2022-12-12T13:16:27.189Z,100.00
2022-12-12T13:19:28.145Z,100.00
2022-12-12T13:22:04.600Z,100.00
2022-12-12T13:24:59.864Z,100.00
2022-12-12T13:27:52.870Z,100.00
2022-12-12T13:30:24.338Z,100.00
2022-12-12T13:33:43.033Z,100.00
2022-12-12T13:36:29.653Z,100.00
2022-12-12T13:39:01.256Z,100.00
2022-12-12T13:41:57.098Z,100.00
2022-12-12T13:44:48.942Z,100.00
2022-12-12T13:47:23.274Z,100.00
2022-12-12T13:50:06.964Z,100.00
2022-12-12T13:52:43.429Z,100.00
2022-12-12T13:55:13.987Z,100.00
2022-12-12T13:57:59.840Z,100.00
2022-12-12T14:00:38.340Z,100.00
2022-12-12T14:03:11.575Z,100.00
2022-12-12T14:05:43.583Z,100.00
2022-12-12T14:08:10.646Z,100.00
2022-12-12T14:10:40.897Z,100.00
2022-12-12T14:13:17.139Z,100.00
2022-12-12T14:15:46.888Z,100.00
2022-12-12T14:18:28.484Z,100.00
2022-12-12T14:21:04.923Z,100.00
2022-12-12T14:23:35.180Z,100.00
2022-12-12T14:26:28.239Z,100.00
2022-12-12T14:29:19.384Z,100.00
2022-12-12T14:32:11.995Z,100.00
2022-12-12T14:35:05.731Z,100.00
2022-12-12T14:38:02.421Z,100.00
2022-12-12T14:40:38.000Z,100.00
2022-12-12T14:43:21.994Z,100.00
2022-12-12T14:45:50.295Z,100.00
2022-12-12T14:48:28.928Z,100.00
2022-12-12T14:51:05.056Z,100.00
2022-12-12T14:53:38.616Z,100.00
2022-12-12T14:56:11.448Z,100.00
2022-12-12T14:58:42.318Z,100.00
2022-12-12T15:01:09.953Z,100.00
2022-12-12T15:04:05.792Z,100.00
2022-12-12T15:06:43.104Z,100.00
2022-12-12T15:09:24.637Z,100.00
2022-12-12T15:11:54.392Z,100.00
2022-12-12T15:14:27.869Z,100.00
2022-12-12T15:17:21.419Z,100.00
2022-12-12T15:19:52.255Z,100.00
2022-12-12T15:22:25.751Z,100.00
2022-12-12T15:24:56.619Z,100.00
2022-12-12T15:27:41.600Z,100.00
2022-12-12T15:30:19.763Z,100.00
2022-12-12T15:32:48.529Z,100.00
2022-12-12T15:35:18.986Z,100.00
2022-12-12T15:38:07.952Z,100.00
2022-12-12T15:40:39.813Z,100.00
2022-12-12T15:43:16.423Z,100.00
2022-12-12T15:45:50.221Z,100.00
2022-12-12T15:48:19.008Z,100.00
2022-12-12T15:50:46.393Z,100.00
2022-12-12T15:53:31.848Z,100.00
2022-12-12T15:56:09.543Z,100.00
2022-12-12T15:58:42.845Z,100.00
2022-12-12T16:01:21.356Z,100.00
2022-12-12T16:03:53.082Z,100.00
2022-12-12T16:06:24.123Z,100.00
2022-12-12T16:09:16.222Z,100.00
2022-12-12T16:11:56.942Z,100.00
2022-12-12T16:14:41.602Z,100.00
2022-12-12T16:17:28.299Z,100.00
2022-12-12T16:20:13.984Z,100.00
2022-12-12T16:22:44.836Z,100.00
2022-12-12T16:25:29.484Z,100.00
2022-12-12T16:28:07.240Z,100.00
2022-12-12T16:30:42.809Z,100.00
2022-12-12T16:33:12.300Z,100.00
2022-12-12T16:35:39.804Z,100.00
2022-12-12T16:38:17.274Z,100.00
2022-12-12T16:40:46.494Z,100.00
2022-12-12T16:43:16.743Z,100.00
2022-12-12T16:45:44.118Z,100.00
2022-12-12T16:48:20.005Z,100.00
2022-12-12T16:50:51.200Z,100.00
2022-12-12T16:53:20.082Z,100.00
2022-12-12T16:55:50.232Z,100.00
2022-12-12T16:58:21.337Z,100.00
2022-12-12T17:00:49.934Z,100.00
2022-12-12T17:03:22.181Z,100.00
2022-12-12T17:05:50.451Z,100.00
2022-12-12T17:08:19.411Z,100.00
2022-12-12T17:10:50.933Z,100.00
2022-12-12T17:13:21.456Z,100.00
2022-12-12T17:15:49.109Z,100.00
2022-12-12T17:18:17.620Z,100.00
2022-12-12T17:20:46.112Z,100.00
2022-12-12T17:23:28.646Z,100.00
2022-12-12T17:26:02.952Z,100.00
2022-12-12T17:28:33.762Z,100.00
2022-12-12T17:31:01.852Z,100.00
2022-12-12T17:33:29.697Z,100.00
2022-12-12T17:36:06.712Z,100.00
2022-12-12T17:38:34.766Z,100.00
2022-12-12T17:41:09.084Z,100.00
2022-12-12T17:43:40.894Z,100.00
2022-12-12T17:46:14.875Z,100.00
2022-12-12T17:48:48.341Z,100.00
2022-12-12T17:51:19.745Z,100.00
2022-12-12T17:53:47.745Z,100.00
2022-12-12T17:56:20.452Z,100.00
2022-12-12T17:58:50.680Z,100.00
2022-12-12T18:01:25.955Z,100.00
2022-12-12T18:03:56.022Z,100.00
2022-12-12T18:06:24.859Z,100.00
2022-12-12T18:08:53.532Z,100.00
2022-12-12T18:11:27.549Z,100.00
2022-12-12T18:14:00.539Z,100.00
2022-12-12T18:16:30.697Z,100.00
2022-12-12T18:18:58.687Z,100.00
2022-12-12T18:24:25.748Z,100.00
2022-12-12T18:26:55.747Z,100.00
2022-12-12T18:29:26.306Z,100.00
2022-12-12T18:31:55.594Z,100.00
2022-12-12T18:34:25.774Z,100.00
2022-12-12T18:36:56.620Z,100.00
2022-12-12T18:39:25.486Z,100.00
2022-12-12T18:41:53.418Z,100.00
2022-12-12T18:44:21.627Z,100.00
2022-12-12T18:46:51.657Z,100.00
2022-12-12T18:49:21.807Z,100.00
2022-12-12T18:51:49.750Z,100.00
2022-12-12T18:54:18.846Z,100.00
2022-12-12T18:56:47.467Z,100.00
2022-12-12T18:59:16.448Z,100.00
2022-12-12T19:01:45.250Z,100.00
2022-12-12T19:04:20.899Z,100.00
2022-12-12T19:06:52.628Z,100.00
2022-12-12T19:09:21.981Z,100.00
2022-12-12T19:11:51.714Z,100.00
2022-12-12T19:14:22.651Z,100.00
2022-12-12T19:16:50.334Z,100.00
2022-12-12T19:19:19.808Z,100.00
2022-12-12T19:21:49.319Z,100.00
2022-12-12T19:24:21.905Z,100.00
2022-12-12T19:26:50.998Z,100.00
2022-12-12T19:29:20.964Z,100.00
2022-12-12T19:31:58.316Z,100.00
2022-12-12T19:34:27.041Z,100.00
2022-12-12T19:36:55.560Z,100.00
2022-12-12T19:39:35.271Z,100.00
2022-12-12T19:42:05.047Z,100.00
2022-12-12T19:44:35.591Z,100.00
2022-12-12T19:47:08.260Z,100.00
2022-12-12T19:49:40.350Z,100.00
2022-12-12T19:52:14.300Z,100.00
2022-12-12T19:54:43.240Z,100.00
2022-12-12T19:57:11.417Z,100.00
2022-12-12T19:59:43.386Z,100.00
2022-12-12T20:02:12.504Z,100.00
2022-12-12T20:04:42.089Z,100.00
2022-12-12T20:07:11.146Z,100.00
2022-12-12T20:09:54.866Z,100.00
2022-12-12T20:12:23.479Z,100.00
2022-12-12T20:14:51.714Z,100.00
2022-12-12T20:17:24.898Z,100.00
2022-12-12T20:19:54.245Z,100.00
2022-12-12T20:22:22.517Z,100.00
2022-12-12T20:24:50.711Z,100.00
2022-12-12T20:27:22.892Z,100.00
2022-12-12T20:29:53.279Z,100.00
2022-12-12T20:32:24.840Z,100.00
2022-12-12T20:34:56.066Z,100.00
2022-12-12T20:37:27.025Z,100.00
2022-12-12T20:39:57.233Z,100.00
2022-12-12T20:42:26.383Z,100.00
2022-12-12T20:44:54.952Z,100.00
2022-12-12T20:47:25.729Z,100.00
2022-12-12T20:49:56.157Z,100.00
2022-12-12T20:52:24.679Z,100.00
2022-12-12T20:54:53.292Z,100.00
2022-12-12T20:57:21.860Z,100.00
2022-12-12T20:59:49.848Z,100.00
2022-12-12T21:02:17.839Z,100.00
2022-12-12T21:04:47.837Z,100.00
2022-12-12T21:07:16.161Z,100.00
2022-12-12T21:09:44.180Z,100.00
2022-12-12T21:12:11.806Z,100.00
2022-12-12T21:14:39.171Z,100.00
2022-12-12T21:17:07.431Z,100.00
2022-12-12T21:19:34.755Z,100.00
2022-12-12T21:22:03.337Z,100.00
2022-12-12T21:24:31.315Z,100.00
2022-12-12T21:27:01.843Z,100.00
2022-12-12T21:29:29.205Z,100.00
2022-12-12T21:32:05.166Z,100.00
2022-12-12T21:34:35.185Z,100.00
2022-12-12T21:37:02.757Z,100.00
2022-12-12T21:39:31.038Z,100.00
2022-12-12T21:41:58.524Z,100.00
2022-12-12T21:44:26.696Z,100.00
2022-12-12T21:46:57.213Z,100.00
2022-12-12T21:49:26.891Z,100.00
2022-12-12T21:51:58.490Z,100.00
2022-12-12T21:54:29.088Z,100.00
2022-12-12T21:56:59.592Z,100.00
2022-12-12T21:59:26.828Z,100.00
2022-12-12T22:02:00.092Z,100.00
2022-12-12T22:04:28.743Z,100.00
2022-12-12T22:06:58.631Z,100.00
2022-12-12T22:09:27.328Z,100.00
2022-12-12T22:12:03.703Z,100.00
2022-12-12T22:14:34.152Z,100.00
2022-12-12T22:17:03.147Z,100.00
2022-12-12T22:19:30.576Z,100.00
2022-12-12T22:21:58.838Z,100.00
2022-12-12T22:24:26.400Z,100.00
2022-12-12T22:26:54.074Z,100.00
2022-12-12T22:29:21.325Z,100.00
2022-12-12T22:31:52.640Z,100.00
2022-12-12T22:34:22.421Z,100.00
2022-12-12T22:36:53.740Z,100.00
2022-12-12T22:39:25.968Z,100.00
2022-12-12T22:41:56.005Z,100.00
2022-12-12T22:44:25.559Z,100.00
2022-12-12T22:46:54.875Z,100.00
2022-12-12T22:49:26.279Z,100.00
2022-12-12T22:51:57.767Z,100.00
2022-12-12T22:54:25.883Z,100.00
2022-12-12T22:56:55.674Z,100.00
2022-12-12T22:59:24.355Z,100.00
2022-12-12T23:01:52.469Z,100.00
2022-12-12T23:04:19.696Z,100.00
2022-12-12T23:06:47.136Z,100.00
2022-12-12T23:09:18.146Z,100.00
2022-12-12T23:11:46.101Z,100.00
2022-12-12T23:14:16.243Z,100.00
2022-12-12T23:16:44.496Z,100.00
2022-12-12T23:19:17.452Z,100.00
2022-12-12T23:21:45.786Z,100.00
2022-12-12T23:24:13.430Z,100.00
2022-12-12T23:26:42.929Z,100.00
2022-12-12T23:29:14.174Z,100.00
2022-12-12T23:31:41.591Z,100.00
2022-12-12T23:34:22.812Z,100.00
2022-12-12T23:36:52.515Z,100.00
2022-12-12T23:39:20.382Z,100.00
2022-12-12T23:41:48.153Z,100.00
2022-12-12T23:44:17.816Z,100.00
2022-12-12T23:46:47.987Z,100.00
2022-12-12T23:49:20.672Z,100.00
2022-12-12T23:51:50.383Z,100.00
2022-12-12T23:54:20.242Z,100.00
2022-12-12T23:56:50.983Z,100.00
2022-12-12T23:59:19.834Z,100.00
